Time;durP1;ratioP1;P1;durP2;ratioP2;P2;SDS_P1;SDS_P2;PMS_P1;PMS_P2;Temp;Humidity;BMP_temperature;BMP_pressure;BME280_temperature;BME280_humidity;BME280_pressure;Samples;Min_cycle;Max_cycle;Signal;HPM_P1;HPM_P2
2021/12/28 00:01:44;;;;;;;37.73;19.00;;;;;;;-4.28;78.27;98476.09;2290916;78;20936;-81
2021/12/28 00:04:45;;;;;;;50.03;26.97;;;;;;;-4.30;78.56;98474.73;2288013;78;20962;-82
2021/12/28 00:07:45;;;;;;;176.47;97.40;;;;;;;-3.50;93.08;98470.72;2281810;78;20989;-83
2021/12/28 00:10:46;;;;;;;83.37;41.20;;;;;;;1.59;100.00;98451.44;2280780;78;21321;-80
2021/12/28 00:13:47;;;;;;;38.97;21.50;;;;;;;2.72;92.12;98453.28;2280840;78;20945;-82
2021/12/28 00:20:06;;;;;;;36.63;20.10;;;;;;;-0.66;70.72;98454.94;2281082;78;20942;-81
2021/12/28 00:23:06;;;;;;;37.17;19.53;;;;;;;-1.88;71.58;98457.92;2281094;78;20986;-81
2021/12/28 00:26:07;;;;;;;32.50;19.33;;;;;;;-2.57;73.09;98452.84;2281164;78;21322;-80
2021/12/28 00:29:08;;;;;;;33.70;18.43;;;;;;;-3.01;74.28;98456.27;2281191;78;21309;-80
2021/12/28 00:32:08;;;;;;;34.03;19.33;;;;;;;-3.30;75.21;98463.49;2281205;78;21277;-80
2021/12/28 00:35:08;;;;;;;31.80;17.50;;;;;;;-3.47;75.92;98460.30;2273915;78;20978;-80
2021/12/28 00:38:09;;;;;;;31.57;17.93;;;;;;;-3.57;76.27;98465.25;2248998;79;20978;-81
2021/12/28 00:41:09;;;;;;;33.17;16.90;;;;;;;-3.66;76.64;98472.34;2248299;79;20959;-81
2021/12/28 00:44:10;;;;;;;33.23;18.00;;;;;;;-3.72;77.14;98469.81;2268019;78;21012;-81
2021/12/28 00:47:10;;;;;;;36.57;17.70;;;;;;;-3.88;77.32;98468.87;2281223;78;20942;-81
2021/12/28 00:50:11;;;;;;;36.93;17.47;;;;;;;-3.94;77.76;98467.22;2280828;78;20996;-81
2021/12/28 00:53:11;;;;;;;36.20;18.37;;;;;;;-3.92;78.01;98474.57;2281073;78;20946;-81
2021/12/28 00:56:12;;;;;;;35.70;19.43;;;;;;;-3.91;78.16;98473.78;2281188;78;20898;-82
2021/12/28 00:59:13;;;;;;;42.23;20.37;;;;;;;-3.91;78.21;98474.18;2281043;78;20958;-81
2021/12/28 01:02:13;;;;;;;35.70;19.03;;;;;;;-3.94;78.32;98475.27;2281119;78;20914;-81
2021/12/28 01:05:14;;;;;;;68.10;36.67;;;;;;;-4.01;78.34;98471.84;2281070;78;21029;-80
2021/12/28 01:08:14;;;;;;;115.97;58.80;;;;;;;0.75;100.00;98454.70;2280972;78;20930;-81
2021/12/28 01:11:15;;;;;;;54.13;28.33;;;;;;;3.48;100.00;98441.78;2281120;78;20958;-80
2021/12/28 01:14:15;;;;;;;39.63;22.43;;;;;;;1.63;75.50;98437.89;2281109;78;20933;-81
2021/12/28 01:17:16;;;;;;;37.73;19.80;;;;;;;0.01;72.01;98452.19;2281067;78;20942;-81
2021/12/28 01:20:16;;;;;;;46.57;23.73;;;;;;;-1.08;72.21;98450.68;2280851;78;21352;-81
2021/12/28 01:23:17;;;;;;;38.37;20.57;;;;;;;-1.81;73.38;98447.22;2280487;78;21364;-80
2021/12/28 01:26:17;;;;;;;44.47;21.07;;;;;;;-2.38;73.69;98439.02;2281195;78;20934;-80
2021/12/28 01:29:17;;;;;;;40.67;21.50;;;;;;;-2.80;74.73;98445.13;2280889;78;20989;-81
2021/12/28 01:32:18;;;;;;;37.80;20.13;;;;;;;-3.11;75.66;98450.53;2281946;78;20914;-80
2021/12/28 01:35:18;;;;;;;36.80;18.40;;;;;;;-3.37;76.09;98447.33;2275419;78;20982;-81
2021/12/28 01:38:19;;;;;;;36.07;18.13;;;;;;;-3.58;76.72;98454.55;2269124;78;20969;-81
2021/12/28 01:41:19;;;;;;;37.27;18.10;;;;;;;-3.64;77.33;98450.36;2281645;78;20933;-81
2021/12/28 01:44:20;;;;;;;35.10;18.63;;;;;;;-3.76;77.81;98444.52;2282137;78;21001;-80
2021/12/28 01:47:20;;;;;;;37.10;15.53;;;;;;;-3.80;78.03;98434.03;2281239;78;20934;-81
2021/12/28 01:50:21;;;;;;;40.17;18.40;;;;;;;-3.79;78.42;98435.80;2281076;78;20965;-81
2021/12/28 01:53:21;;;;;;;32.83;18.13;;;;;;;-3.80;78.32;98436.19;2281294;78;21305;-81
2021/12/28 01:56:22;;;;;;;32.73;17.00;;;;;;;-3.90;78.53;98430.92;2281330;78;21257;-81
2021/12/28 01:59:22;;;;;;;34.77;17.70;;;;;;;-3.95;78.86;98426.33;2281153;78;20974;-80
2021/12/28 02:02:23;;;;;;;168.17;91.03;;;;;;;-3.99;78.85;98418.89;2281600;78;20930;-81
2021/12/28 02:05:23;;;;;;;174.93;93.80;;;;;;;-0.36;100.00;98397.44;2270097;77;21012;-80
2021/12/28 02:08:24;;;;;;;57.60;28.27;;;;;;;3.49;100.00;98385.47;2248651;79;21010;-80
2021/12/28 02:11:24;;;;;;;44.50;25.73;;;;;;;1.93;70.83;98383.33;2248977;78;20977;-81
2021/12/28 02:14:25;;;;;;;45.07;24.50;;;;;;;0.07;70.41;98394.73;2248530;79;21327;-79
2021/12/28 02:17:26;;;;;;;41.97;23.13;;;;;;;-1.23;70.94;98394.84;2248842;78;20973;-81
2021/12/28 02:20:27;;;;;;;45.43;22.63;;;;;;;-2.07;72.97;98384.44;2248756;79;20991;-81
2021/12/28 02:23:28;;;;;;;43.70;22.83;;;;;;;-2.59;74.73;98384.17;2248850;79;20936;-81
2021/12/28 02:26:28;;;;;;;43.10;22.37;;;;;;;-2.85;75.75;98392.02;2249081;79;20958;-81
2021/12/28 02:29:29;;;;;;;47.80;23.17;;;;;;;-3.04;76.71;98381.16;2248777;79;20916;-80
2021/12/28 02:32:29;;;;;;;38.77;21.00;;;;;;;-3.27;77.21;98385.83;2248837;79;20932;-80
2021/12/28 02:35:30;;;;;;;41.43;20.77;;;;;;;-3.38;78.00;98388.15;2248845;79;21030;-81
2021/12/28 02:38:31;;;;;;;39.90;21.27;;;;;;;-3.40;78.42;98380.80;2248704;78;20964;-80
2021/12/28 02:41:32;;;;;;;41.17;21.80;;;;;;;-3.49;78.83;98370.42;2249037;79;21360;-80
2021/12/28 02:44:32;;;;;;;35.90;18.87;;;;;;;-3.55;79.50;98380.75;2248782;79;20928;-80
2021/12/28 02:47:33;;;;;;;39.57;20.07;;;;;;;-3.51;79.47;98376.70;2248837;79;20940;-80
2021/12/28 02:50:33;;;;;;;39.03;21.40;;;;;;;-3.55;80.40;98383.70;2248916;79;21315;-78
2021/12/28 02:53:34;;;;;;;37.20;18.93;;;;;;;-3.60;80.14;98383.82;2248953;78;21324;-80
2021/12/28 02:56:34;;;;;;;38.77;18.50;;;;;;;-3.60;79.81;98382.55;2249060;79;21340;-80
2021/12/28 02:59:35;;;;;;;39.73;19.77;;;;;;;-3.62;79.87;98383.73;2248653;78;20982;-81
2021/12/28 03:02:35;;;;;;;39.57;21.20;;;;;;;-3.64;79.60;98381.48;2248816;79;20959;-82
2021/12/28 03:05:36;;;;;;;165.03;88.40;;;;;;;-3.64;83.00;98385.70;2258749;77;21028;-84
2021/12/28 03:08:36;;;;;;;67.93;35.13;;;;;;;1.74;100.00;98358.17;2280416;78;20969;-80
2021/12/28 03:11:37;;;;;;;49.67;26.03;;;;;;;2.26;78.67;98354.09;2281089;78;20969;-80
2021/12/28 03:14:37;;;;;;;41.60;21.97;;;;;;;0.30;70.39;98351.72;2281133;78;20922;-80
2021/12/28 03:17:38;;;;;;;41.77;21.97;;;;;;;-1.14;71.75;98350.88;2281064;78;21305;-77
2021/12/28 03:20:38;;;;;;;37.00;21.03;;;;;;;-1.96;73.44;98345.84;2281470;78;21369;-78
2021/12/28 03:23:39;;;;;;;37.00;19.50;;;;;;;-2.51;74.80;98348.81;2281342;78;20977;-81
2021/12/28 03:26:39;;;;;;;36.73;18.93;;;;;;;-2.84;75.68;98349.96;2280756;78;20930;-78
2021/12/28 03:29:40;;;;;;;39.27;19.43;;;;;;;-3.06;76.50;98350.43;2280417;78;21306;-79
2021/12/28 03:32:40;;;;;;;35.77;18.90;;;;;;;-3.22;77.00;98349.95;2280994;78;21255;-80
2021/12/28 03:35:41;;;;;;;35.27;18.17;;;;;;;-3.31;77.58;98348.16;2275709;78;21042;-80
2021/12/28 03:38:41;;;;;;;35.83;18.23;;;;;;;-3.44;78.10;98350.80;2277913;78;20949;-80
2021/12/28 03:44:44;;;;;;;35.47;17.53;;;;;;;-1.33;81.99;98346.53;2259237;78;20972;-80
2021/12/28 03:47:45;;;;;;;36.73;17.03;;;;;;;-1.87;75.36;98337.77;2280876;78;20950;-80
2021/12/28 03:50:45;;;;;;;32.63;17.90;;;;;;;-2.43;75.69;98343.72;2280502;78;20985;-80
2021/12/28 03:53:46;;;;;;;33.30;18.23;;;;;;;-2.79;76.35;98342.55;2280216;78;20946;-79
2021/12/28 03:56:46;;;;;;;34.10;17.73;;;;;;;-3.10;76.94;98347.63;2280881;78;20972;-80
2021/12/28 03:59:47;;;;;;;30.73;16.90;;;;;;;-3.24;77.25;98343.89;2280878;78;20970;-80
2021/12/28 04:02:47;;;;;;;34.67;18.07;;;;;;;-3.39;77.81;98349.39;2280837;78;20902;-80
2021/12/28 04:05:48;;;;;;;30.23;17.07;;;;;;;-3.48;78.08;98346.27;2270363;78;21007;-80
2021/12/28 04:08:48;;;;;;;32.87;17.53;;;;;;;-3.54;78.53;98345.52;2248666;78;20947;-80
2021/12/28 04:11:49;;;;;;;33.73;16.03;;;;;;;-3.60;78.39;98344.28;2248379;79;20984;-81
2021/12/28 04:14:49;;;;;;;33.27;17.93;;;;;;;-3.67;78.74;98351.97;2247787;79;20972;-80
2021/12/28 04:17:50;;;;;;;40.47;18.57;;;;;;;-3.74;79.09;98354.06;2248850;79;20924;-80
2021/12/28 04:20:50;;;;;;;31.50;18.13;;;;;;;-3.76;79.36;98349.27;2248707;79;20979;-79
2021/12/28 04:23:51;;;;;;;33.83;18.13;;;;;;;-3.72;79.39;98358.86;2247919;78;20932;-81
2021/12/28 04:26:51;;;;;;;29.63;15.97;;;;;;;-3.70;79.22;98358.56;2248959;78;20947;-81
2021/12/28 04:29:52;;;;;;;28.43;17.13;;;;;;;-3.73;79.47;98365.63;2248868;79;20908;-80
2021/12/28 04:32:52;;;;;;;32.47;17.93;;;;;;;-3.77;79.37;98358.98;2248711;79;20904;-80
2021/12/28 04:35:53;;;;;;;30.13;16.17;;;;;;;-3.72;79.63;98360.14;2248938;79;20975;-79
2021/12/28 04:38:53;;;;;;;26.83;14.70;;;;;;;-3.70;79.63;98353.45;2248932;79;21304;-80
2021/12/28 04:41:54;;;;;;;30.00;15.67;;;;;;;-3.71;79.56;98347.87;2248738;78;20924;-81
2021/12/28 04:44:54;;;;;;;27.13;15.00;;;;;;;-3.73;79.63;98352.00;2248672;79;20921;-80
2021/12/28 04:47:55;;;;;;;28.00;16.40;;;;;;;-3.70;79.51;98344.53;2247875;79;20900;-79
2021/12/28 04:50:55;;;;;;;28.17;15.83;;;;;;;-3.72;79.46;98338.06;2247820;79;20944;-80
2021/12/28 04:53:57;;;;;;;33.90;16.90;;;;;;;-3.73;79.32;98346.90;2246907;79;20952;-80
2021/12/28 04:56:57;;;;;;;25.63;16.03;;;;;;;-3.70;79.37;98344.53;2247366;78;21659;-79
2021/12/28 04:59:58;;;;;;;28.00;16.50;;;;;;;-3.64;79.66;98344.89;2247686;78;21014;-80
2021/12/28 05:02:59;;;;;;;21.60;13.93;;;;;;;-3.62;79.26;98340.76;2247928;79;20951;-80
2021/12/28 05:05:59;;;;;;;30.37;16.23;;;;;;;-3.57;79.18;98340.23;2256686;77;21020;-80
2021/12/28 05:09:00;;;;;;;46.70;27.40;;;;;;;-3.59;79.13;98337.11;2280327;78;20972;-80
2021/12/28 05:12:00;;;;;;;29.03;17.80;;;;;;;-3.61;79.00;98338.30;2280800;78;21365;-79
2021/12/28 05:15:01;;;;;;;26.70;16.73;;;;;;;-3.61;79.26;98342.52;2280113;78;21686;-80
2021/12/28 05:18:01;;;;;;;26.90;16.43;;;;;;;-3.58;78.97;98337.20;2279826;78;21364;-80
2021/12/28 05:21:02;;;;;;;25.43;14.67;;;;;;;-3.60;79.23;98333.68;2280554;78;20973;-80
2021/12/28 05:24:02;;;;;;;23.33;13.57;;;;;;;-3.63;78.99;98327.52;2280139;78;20965;-79
2021/12/28 05:27:03;;;;;;;25.10;15.10;;;;;;;-3.73;79.04;98332.48;2279558;78;20914;-79
2021/12/28 05:30:03;;;;;;;25.07;15.40;;;;;;;-3.73;79.28;98337.97;2279459;78;20953;-80
2021/12/28 05:33:04;;;;;;;26.77;15.60;;;;;;;-3.77;79.07;98337.31;2279071;78;20965;-80
2021/12/28 05:36:04;;;;;;;28.97;15.47;;;;;;;-3.80;79.45;98344.38;2279721;78;21411;-79
2021/12/28 05:39:05;;;;;;;22.53;14.87;;;;;;;-3.65;80.62;98342.73;2280622;78;21337;-81
2021/12/28 05:42:05;;;;;;;27.40;14.83;;;;;;;-3.62;79.12;98339.09;2280301;78;21325;-79
2021/12/28 05:45:06;;;;;;;21.90;14.23;;;;;;;-3.70;78.81;98339.43;2278530;78;20956;-79
2021/12/28 05:48:06;;;;;;;23.93;14.63;;;;;;;-3.74;79.00;98340.03;2279125;78;20961;-81
2021/12/28 05:51:07;;;;;;;23.67;14.67;;;;;;;-3.74;78.97;98332.38;2279053;78;20981;-79
2021/12/28 05:54:07;;;;;;;26.73;15.83;;;;;;;-3.76;78.99;98328.86;2278769;78;20965;-79
2021/12/28 05:57:08;;;;;;;25.57;14.83;;;;;;;-3.74;79.06;98326.02;2279010;78;21058;-81
2021/12/28 06:00:08;;;;;;;23.37;15.53;;;;;;;-3.77;78.76;98332.20;2278731;78;20958;-80
2021/12/28 06:03:09;;;;;;;26.20;16.60;;;;;;;-3.84;78.94;98329.69;2278322;78;20937;-79
2021/12/28 06:06:09;;;;;;;29.53;15.73;;;;;;;-3.88;79.14;98329.91;2271279;78;21050;-80
2021/12/28 06:09:10;;;;;;;23.17;14.20;;;;;;;-3.87;79.37;98320.59;2247924;78;20945;-80
2021/12/28 06:12:10;;;;;;;41.80;30.77;;;;;;;-3.86;79.42;98327.05;2247472;79;20936;-78
2021/12/28 06:15:11;;;;;;;26.07;16.57;;;;;;;-3.83;79.35;98326.34;2246275;79;20951;-77
2021/12/28 06:18:11;;;;;;;26.20;16.30;;;;;;;-3.85;79.24;98336.45;2246282;78;20958;-81
2021/12/28 06:21:12;;;;;;;24.30;15.50;;;;;;;-3.87;79.17;98339.31;2247162;79;20947;-80
2021/12/28 06:24:12;;;;;;;26.77;15.90;;;;;;;-3.90;79.34;98342.95;2246974;79;20944;-81
2021/12/28 06:27:12;;;;;;;26.63;16.40;;;;;;;-3.91;79.45;98339.92;2246493;79;20944;-80
2021/12/28 06:30:13;;;;;;;21.53;15.30;;;;;;;-3.89;79.67;98338.34;2247281;79;20971;-81
2021/12/28 06:33:13;;;;;;;24.70;15.73;;;;;;;-3.88;79.61;98331.57;2247299;79;21339;-80
2021/12/28 06:36:14;;;;;;;26.23;14.90;;;;;;;-3.87;79.52;98327.84;2247101;78;21371;-80
2021/12/28 06:39:14;;;;;;;25.40;14.37;;;;;;;-3.85;79.40;98335.58;2247907;79;21061;-80
2021/12/28 06:42:15;;;;;;;27.43;16.63;;;;;;;-3.85;79.40;98335.58;2247106;78;20932;-79
2021/12/28 06:45:15;;;;;;;21.70;14.20;;;;;;;-3.83;79.70;98334.39;2247634;78;21347;-81
2021/12/28 06:48:16;;;;;;;20.00;13.20;;;;;;;-3.82;79.48;98338.70;2247757;78;20935;-80
2021/12/28 06:51:17;;;;;;;22.80;15.10;;;;;;;-3.85;79.60;98345.38;2247975;79;20927;-81
2021/12/28 06:54:17;;;;;;;19.93;13.97;;;;;;;-3.85;79.69;98348.33;2247953;79;20999;-80
2021/12/28 06:57:18;;;;;;;27.33;13.97;;;;;;;-3.81;79.56;98345.17;2248157;79;20916;-80
2021/12/28 07:00:18;;;;;;;25.73;15.07;;;;;;;-3.79;79.58;98342.71;2248367;78;20971;-80
2021/12/28 07:03:18;;;;;;;23.63;14.80;;;;;;;-3.78;79.60;98331.33;2247291;79;20976;-79
2021/12/28 07:06:20;;;;;;;24.50;14.77;;;;;;;-3.83;79.40;98339.49;2253503;77;21016;-81
2021/12/28 07:09:21;;;;;;;25.07;14.77;;;;;;;-3.83;79.61;98334.39;2279015;78;20980;-81
2021/12/28 07:12:21;;;;;;;21.47;14.00;;;;;;;-3.80;79.62;98343.50;2279797;78;21318;-81
2021/12/28 07:15:21;;;;;;;24.90;15.70;;;;;;;-3.72;79.47;98351.21;2279328;78;21432;-81
2021/12/28 07:18:22;;;;;;;23.30;15.03;;;;;;;-3.67;79.38;98353.24;2278615;78;21293;-81
2021/12/28 07:21:22;;;;;;;23.83;15.07;;;;;;;-3.62;79.42;98364.59;2279045;78;20934;-81
2021/12/28 07:24:23;;;;;;;19.90;13.47;;;;;;;-3.57;79.13;98357.21;2278565;78;20949;-80
2021/12/28 07:27:24;;;;;;;25.33;13.57;;;;;;;-3.63;78.99;98369.61;2278303;78;20942;-80
2021/12/28 07:30:24;;;;;;;24.10;14.67;;;;;;;-3.61;79.27;98363.81;2278308;78;20957;-81
2021/12/28 07:33:25;;;;;;;19.70;13.80;;;;;;;-3.52;79.25;98360.91;2279188;78;20961;-80
2021/12/28 07:36:25;;;;;;;20.00;13.27;;;;;;;-3.41;79.20;98367.95;2278834;78;20934;-81
2021/12/28 07:39:26;;;;;;;21.87;13.90;;;;;;;-3.32;79.03;98370.64;2278809;78;21726;-80
2021/12/28 07:42:26;;;;;;;22.07;15.40;;;;;;;-3.25;78.73;98366.38;2280292;78;20957;-81
2021/12/28 07:45:27;;;;;;;22.90;14.27;;;;;;;-3.25;78.01;98367.65;2279518;78;20911;-80
2021/12/28 07:48:27;;;;;;;22.87;15.60;;;;;;;-3.33;78.05;98369.28;2278564;78;20942;-80
2021/12/28 07:51:28;;;;;;;25.43;14.27;;;;;;;-3.38;78.27;98379.22;2278216;78;21489;-80
2021/12/28 07:54:28;;;;;;;22.70;14.47;;;;;;;-3.38;78.58;98371.56;2278269;78;20958;-80
2021/12/28 07:57:30;;;;;;;23.10;13.83;;;;;;;-3.34;78.62;98372.63;2277915;78;20918;-80
2021/12/28 08:00:31;;;;;;;25.70;13.97;;;;;;;-3.30;78.35;98366.90;2278127;78;21707;-80
2021/12/28 08:03:31;;;;;;;20.57;14.43;;;;;;;-3.28;78.37;98370.03;2278044;78;20965;-82
2021/12/28 08:06:32;;;;;;;24.33;15.87;;;;;;;-3.23;78.54;98366.06;2278402;77;21437;-83
2021/12/28 08:09:32;;;;;;;19.90;12.73;;;;;;;-3.17;78.18;98358.28;2278568;78;20922;-82
2021/12/28 08:12:33;;;;;;;18.60;12.47;;;;;;;-3.12;78.11;98363.25;2280014;78;20937;-83
2021/12/28 08:15:36;;;;;;;19.20;13.67;;;;;;;-3.09;77.67;98359.59;2278999;78;21317;-81
2021/12/28 08:18:37;;;;;;;18.80;12.80;;;;;;;-3.14;77.24;98349.52;2278443;78;20937;-81
2021/12/28 08:21:38;;;;;;;22.33;14.37;;;;;;;-3.15;77.20;98339.70;2279155;78;20957;-81
2021/12/28 08:24:38;;;;;;;16.30;11.70;;;;;;;-3.15;77.39;98337.55;2279619;78;20935;-81
2021/12/28 08:27:39;;;;;;;23.10;14.70;;;;;;;-3.19;77.15;98344.55;2279605;78;20910;-81
2021/12/28 08:30:40;;;;;;;18.07;12.77;;;;;;;-3.24;77.42;98345.16;2278951;78;21357;-80
2021/12/28 08:33:43;;;;;;;19.17;13.50;;;;;;;-3.15;77.75;98333.31;2279683;78;20937;-80
2021/12/28 08:36:44;;;;;;;18.73;14.07;;;;;;;-3.05;77.64;98329.21;2279891;78;21321;-80
2021/12/28 08:39:44;;;;;;;18.63;12.97;;;;;;;-3.03;77.26;98328.02;2279985;78;20954;-81
2021/12/28 08:42:45;;;;;;;20.10;14.77;;;;;;;-2.95;77.54;98330.20;2279679;78;20957;-81
2021/12/28 08:45:45;;;;;;;19.63;14.00;;;;;;;-2.89;77.14;98334.38;2279372;78;20933;-81
2021/12/28 08:48:46;;;;;;;25.30;14.80;;;;;;;-2.81;77.02;98332.65;2279553;78;20979;-80
2021/12/28 08:51:46;;;;;;;25.40;16.03;;;;;;;-2.86;76.75;98333.67;2279347;78;21356;-80
2021/12/28 08:54:47;;;;;;;18.70;12.77;;;;;;;-2.81;76.85;98335.20;2279300;78;20934;-81
2021/12/28 08:57:51;;;;;;;23.73;14.53;;;;;;;-2.79;76.46;98331.06;2278905;78;21333;-81
2021/12/28 09:00:52;;;;;;;21.60;14.70;;;;;;;-2.81;75.89;98321.16;2278974;78;20942;-81
2021/12/28 09:03:53;;;;;;;17.83;13.43;;;;;;;-2.86;76.22;98311.96;2278917;78;20941;-80
2021/12/28 09:06:53;;;;;;;21.07;14.37;;;;;;;-2.86;76.34;98315.80;2280776;77;22143;-80
2021/12/28 09:09:55;;;;;;;21.20;15.03;;;;;;;-2.81;76.39;98307.11;2289020;78;20944;-81
2021/12/28 09:12:55;;;;;;;20.20;14.03;;;;;;;-2.73;76.39;98307.13;2289000;77;21664;-80
2021/12/28 09:15:56;;;;;;;19.20;14.13;;;;;;;-2.64;76.26;98308.91;2288853;78;20960;-81
2021/12/28 09:18:56;;;;;;;20.63;13.80;;;;;;;-2.54;76.40;98320.14;2289403;78;20963;-81
2021/12/28 09:21:57;;;;;;;15.97;12.43;;;;;;;-2.53;75.24;98311.68;2290040;78;20956;-80
2021/12/28 09:24:57;;;;;;;21.50;13.93;;;;;;;-2.61;75.52;98309.95;2289182;78;20963;-81
2021/12/28 09:27:58;;;;;;;17.40;12.93;;;;;;;-2.56;75.38;98300.02;2289597;78;20935;-81
2021/12/28 09:30:59;;;;;;;20.20;13.03;;;;;;;-2.56;75.38;98297.45;2289706;78;21003;-81
2021/12/28 09:33:59;;;;;;;17.80;12.57;;;;;;;-2.59;74.58;98298.57;2289765;78;20936;-84
2021/12/28 09:37:00;;;;;;;20.30;13.20;;;;;;;-2.62;75.14;98296.70;2289224;78;20975;-81
2021/12/28 09:40:00;;;;;;;21.83;16.67;;;;;;;-2.71;74.90;98288.53;2288434;78;20983;-80
2021/12/28 09:43:01;;;;;;;20.27;13.37;;;;;;;-2.75;75.29;98295.55;2288710;78;20908;-81
2021/12/28 09:46:01;;;;;;;22.50;14.30;;;;;;;-2.71;75.39;98285.09;2289013;78;20977;-81
2021/12/28 09:49:02;;;;;;;21.33;14.13;;;;;;;-2.61;75.37;98281.84;2290112;78;20943;-81
2021/12/28 09:52:02;;;;;;;22.87;14.43;;;;;;;-2.51;75.26;98273.42;2289344;78;20959;-81
2021/12/28 09:55:03;;;;;;;21.87;12.77;;;;;;;-2.44;74.89;98270.40;2290036;78;20940;-81
2021/12/28 09:58:03;;;;;;;15.03;11.27;;;;;;;-2.35;75.15;98278.16;2289963;78;21040;-80
2021/12/28 10:01:07;;;;;;;18.53;12.40;;;;;;;-2.30;74.53;98284.78;2289832;78;20988;-79
2021/12/28 10:04:07;;;;;;;19.33;13.00;;;;;;;-2.35;74.31;98284.94;2288851;78;21016;-81
2021/12/28 10:07:08;;;;;;;19.90;12.80;;;;;;;-2.43;74.47;98278.55;2289650;78;20944;-81
2021/12/28 10:10:09;;;;;;;19.93;13.93;;;;;;;-2.46;74.43;98282.22;2290092;78;20987;-81
2021/12/28 10:13:09;;;;;;;19.63;12.67;;;;;;;-2.44;74.86;98279.34;2288934;78;20970;-81
2021/12/28 10:16:12;;;;;;;20.50;13.33;;;;;;;-2.38;74.76;98280.55;2288939;78;20931;-81
2021/12/28 10:19:13;;;;;;;22.30;14.73;;;;;;;-2.31;74.72;98271.13;2289369;78;20964;-81
2021/12/28 10:22:13;;;;;;;19.00;12.80;;;;;;;-2.25;74.51;98273.13;2289411;78;20944;-81
2021/12/28 10:25:14;;;;;;;20.13;13.83;;;;;;;-2.26;74.22;98259.86;2289548;78;20959;-82
2021/12/28 10:28:15;;;;;;;23.33;15.03;;;;;;;-2.20;74.32;98269.53;2288755;78;20966;-81
2021/12/28 10:31:15;;;;;;;22.80;15.07;;;;;;;-2.16;74.16;98276.16;2288941;78;20928;-81
2021/12/28 10:34:15;;;;;;;17.40;13.17;;;;;;;-2.08;74.18;98277.83;2288727;78;20975;-80
2021/12/28 10:37:16;;;;;;;20.67;15.20;;;;;;;-2.05;73.93;98273.76;2288716;78;20928;-80
2021/12/28 10:40:16;;;;;;;19.67;13.70;;;;;;;-2.00;74.04;98277.83;2288475;78;20920;-80
2021/12/28 10:43:17;;;;;;;22.97;14.97;;;;;;;-2.09;73.45;98270.56;2289502;78;20925;-80
2021/12/28 10:46:18;;;;;;;18.47;13.67;;;;;;;-2.15;74.10;98265.13;2289720;78;20896;-81
2021/12/28 10:49:18;;;;;;;21.13;13.77;;;;;;;-2.10;73.84;98257.30;2288814;78;20900;-79
2021/12/28 10:52:18;;;;;;;21.13;14.30;;;;;;;-2.09;73.45;98257.78;2289050;78;20919;-80
2021/12/28 10:55:20;;;;;;;23.60;14.60;;;;;;;-2.04;73.60;98254.17;2289435;78;20948;-79
2021/12/28 10:58:20;;;;;;;18.73;12.67;;;;;;;-2.01;73.21;98255.21;2288443;78;21433;-79
2021/12/28 11:01:21;;;;;;;20.63;15.23;;;;;;;-1.98;73.32;98245.53;2288644;78;20928;-80
2021/12/28 11:04:21;;;;;;;22.43;14.50;;;;;;;-2.01;73.07;98255.21;2289651;78;21323;-80
2021/12/28 11:07:24;;;;;;;20.97;13.60;;;;;;;-2.07;72.81;98245.06;2286350;78;21001;-82
2021/12/28 11:10:24;;;;;;;21.50;14.40;;;;;;;-2.08;72.94;98239.08;2278708;78;21631;-81
2021/12/28 11:13:25;;;;;;;23.10;14.33;;;;;;;-2.04;73.29;98230.77;2278511;78;20981;-79
2021/12/28 11:16:29;;;;;;;20.80;14.37;;;;;;;-1.99;73.21;98226.75;2278200;78;21077;-81
2021/12/28 11:19:29;;;;;;;22.30;15.70;;;;;;;-2.00;72.58;98216.05;2278561;78;20996;-80
2021/12/28 11:22:30;;;;;;;25.80;16.40;;;;;;;-1.98;73.09;98205.49;2278986;78;20942;-80
2021/12/28 11:25:30;;;;;;;27.97;17.13;;;;;;;-1.98;72.55;98195.27;2278715;78;20937;-81
2021/12/28 11:28:31;;;;;;;23.87;16.27;;;;;;;-1.94;72.80;98197.17;2278688;78;20973;-80
2021/12/28 11:31:31;;;;;;;23.17;15.77;;;;;;;-1.97;72.72;98202.53;2278596;78;20946;-80
2021/12/28 11:34:32;;;;;;;22.53;16.43;;;;;;;-2.01;72.72;98209.17;2279132;78;20930;-81
2021/12/28 11:37:34;;;;;;;22.77;15.33;;;;;;;-2.08;72.66;98191.77;2279147;78;21007;-80
2021/12/28 11:40:34;;;;;;;25.43;16.77;;;;;;;-2.19;72.70;98194.18;2278497;78;21571;-81
2021/12/28 11:43:35;;;;;;;23.90;16.17;;;;;;;-2.21;73.34;98191.95;2278983;78;21301;-81
2021/12/28 11:46:35;;;;;;;24.40;15.70;;;;;;;-2.16;73.30;98171.33;2279783;78;20976;-79
2021/12/28 11:49:36;;;;;;;23.23;15.67;;;;;;;-2.18;73.06;98169.09;2279612;78;20953;-78
2021/12/28 11:52:36;;;;;;;23.13;14.93;;;;;;;-2.26;73.11;98176.38;2278688;78;20914;-82
2021/12/28 11:55:37;;;;;;;22.23;15.93;;;;;;;-2.28;73.29;98177.97;2279373;78;20937;-81
2021/12/28 11:58:38;;;;;;;22.13;16.03;;;;;;;-2.28;73.59;98163.91;2279344;78;20976;-80
2021/12/28 12:01:39;;;;;;;25.40;15.90;;;;;;;-2.25;73.82;98163.19;2279729;78;20946;-80
2021/12/28 12:04:39;;;;;;;22.30;14.13;;;;;;;-2.22;73.88;98167.18;2279217;78;20977;-81
2021/12/28 12:11:17;;;;;;;23.53;15.20;;;;;;;-2.09;73.63;98149.50;2238300;78;22499;-81
2021/12/28 12:14:17;;;;;;;22.97;14.80;;;;;;;-2.15;73.37;98141.13;2208491;80;21696;-81
2021/12/28 12:17:18;;;;;;;24.77;15.40;;;;;;;-2.23;73.19;98128.76;2216584;80;20994;-81
2021/12/28 12:20:27;;;;;;;28.23;16.83;;;;;;;-2.33;73.56;98133.41;2212215;80;20994;-80
2021/12/28 12:23:27;;;;;;;29.00;16.00;;;;;;;-2.40;73.65;98136.86;2202505;80;20998;-78
2021/12/28 12:26:27;;;;;;;24.33;16.90;;;;;;;-2.42;73.99;98128.23;2201172;80;21003;-79
2021/12/28 12:29:28;;;;;;;28.87;18.07;;;;;;;-2.39;73.91;98123.28;2222628;80;20995;-81
2021/12/28 12:32:28;;;;;;;24.53;17.27;;;;;;;-2.41;73.74;98116.81;2195454;80;20939;-79
2021/12/28 12:35:29;;;;;;;26.17;17.50;;;;;;;-2.45;73.86;98106.36;2224811;80;20959;-79
2021/12/28 12:38:29;;;;;;;27.23;15.90;;;;;;;-2.42;74.09;98109.94;2233730;80;21022;-81
2021/12/28 12:41:30;;;;;;;28.27;16.50;;;;;;;-2.48;73.59;98100.69;2202591;80;21002;-79
2021/12/28 12:44:30;;;;;;;21.77;15.83;;;;;;;-2.52;73.99;98104.30;2201415;80;20979;-80
2021/12/28 12:47:31;;;;;;;29.07;16.53;;;;;;;-2.41;74.21;98109.55;2217317;80;20999;-81
2021/12/28 12:50:31;;;;;;;28.37;16.87;;;;;;;-2.31;73.85;98102.41;2207725;80;20967;-81
2021/12/28 12:53:32;;;;;;;26.50;18.27;;;;;;;-2.27;73.51;98103.04;2205769;80;20947;-81
2021/12/28 12:56:32;;;;;;;26.07;17.27;;;;;;;-2.21;73.46;98099.91;2226178;80;20943;-81
2021/12/28 12:59:33;;;;;;;25.40;16.27;;;;;;;-2.18;73.49;98095.34;2231778;80;20975;-80
2021/12/28 13:02:34;;;;;;;30.30;17.17;;;;;;;-2.16;73.39;98101.02;2221620;80;20971;-80
2021/12/28 13:05:34;;;;;;;26.30;17.07;;;;;;;-2.16;73.22;98110.36;2205566;80;20971;-79
2021/12/28 13:08:35;;;;;;;25.73;15.80;;;;;;;-2.12;73.40;98107.16;2211286;80;21054;-81
2021/12/28 13:11:35;;;;;;;24.77;16.07;;;;;;;-2.02;73.43;98102.56;2194143;80;21346;-80
2021/12/28 13:14:36;;;;;;;24.50;16.57;;;;;;;-2.04;72.24;98099.05;2190733;80;21323;-79
2021/12/28 13:17:36;;;;;;;30.30;16.63;;;;;;;-2.07;72.43;98108.25;2215688;80;21728;-81
2021/12/28 13:20:37;;;;;;;28.60;17.17;;;;;;;-2.15;72.44;98112.99;2206799;80;20970;-81
2021/12/28 13:23:37;;;;;;;26.07;17.27;;;;;;;-2.26;72.64;98115.42;2214251;80;21030;-82
2021/12/28 13:26:38;;;;;;;23.57;15.57;;;;;;;-2.41;72.82;98113.38;2182008;80;20955;-81
2021/12/28 13:29:38;;;;;;;25.07;17.30;;;;;;;-2.47;72.74;98115.22;2230198;80;21386;-81
2021/12/28 13:32:39;;;;;;;31.33;18.80;;;;;;;-2.55;73.49;98115.63;2208300;80;21410;-81
2021/12/28 13:35:41;;;;;;;29.03;18.17;;;;;;;-2.60;73.54;98117.95;2209883;80;21003;-82
2021/12/28 13:38:42;;;;;;;33.80;19.70;;;;;;;-2.60;73.70;98117.55;2224194;80;21106;-81
2021/12/28 13:41:42;;;;;;;27.57;18.40;;;;;;;-2.62;73.77;98110.18;2201011;80;21401;-80
2021/12/28 13:44:43;;;;;;;29.33;17.47;;;;;;;-2.65;73.99;98110.02;2207197;80;20963;-80
2021/12/28 13:47:43;;;;;;;26.73;17.67;;;;;;;-2.74;74.28;98101.02;2215087;80;20994;-81
2021/12/28 13:50:45;;;;;;;27.90;17.70;;;;;;;-2.74;74.28;98101.02;2199576;80;21035;-81
2021/12/28 13:53:46;;;;;;;36.53;22.67;;;;;;;-2.78;74.10;98089.76;2199115;80;20982;-80
2021/12/28 13:56:51;;;;;;;29.00;18.43;;;;;;;-1.96;93.73;98103.27;2206627;80;21399;-81
2021/12/28 13:59:50;;;;;;;30.43;18.60;;;;;;;-1.93;77.05;98105.97;2214997;80;21090;-81